createdAt,value
2022-07-25T00:00:36.357Z,95476.84
2022-07-25T00:03:39.699Z,95472.09
2022-07-25T00:06:42.098Z,95472.72
2022-07-25T00:09:43.768Z,95470.13
2022-07-25T00:12:47.770Z,95470.13
2022-07-25T00:15:49.448Z,95467.06
2022-07-25T00:18:52.580Z,95470.59
2022-07-25T00:21:54.210Z,95463.88
2022-07-25T00:24:55.827Z,95464.16
2022-07-25T00:27:57.459Z,95461.56
2022-07-25T00:30:59.172Z,95462.50
2022-07-25T00:34:02.479Z,95457.31
2022-07-25T00:37:04.391Z,95455.63
2022-07-25T00:40:06.468Z,95454.25
2022-07-25T00:43:08.296Z,95456.69
2022-07-25T00:46:12.124Z,95451.34
2022-07-25T00:49:15.442Z,95454.41
2022-07-25T00:52:17.254Z,95455.03
2022-07-25T00:55:19.628Z,95445.25
2022-07-25T00:58:21.270Z,95447.06
2022-07-25T01:01:23.003Z,95444.25
2022-07-25T01:04:26.111Z,95448.13
2022-07-25T01:07:28.080Z,95438.63
2022-07-25T01:10:30.417Z,95443.50
2022-07-25T01:13:32.513Z,95442.72
2022-07-25T01:16:34.195Z,95438.59
2022-07-25T01:19:37.310Z,95432.66
2022-07-25T01:22:40.460Z,95433.72
2022-07-25T01:25:42.229Z,95429.59
2022-07-25T01:28:43.924Z,95433.88
2022-07-25T01:31:45.565Z,95431.72
2022-07-25T01:34:47.193Z,95429.91
2022-07-25T01:37:50.177Z,95429.28
2022-07-25T01:40:51.778Z,95422.56
2022-07-25T01:43:53.451Z,95415.06
2022-07-25T01:46:55.094Z,95410.78
2022-07-25T01:49:56.742Z,95407.75
2022-07-25T01:52:59.725Z,95409.56
2022-07-25T01:56:02.835Z,95414.47
2022-07-25T01:59:05.067Z,95413.25
2022-07-25T02:02:07.153Z,95411.25
2022-07-25T02:05:09.562Z,95410.03
2022-07-25T02:08:12.651Z,95398.41
2022-07-25T02:11:14.411Z,95400.53
2022-07-25T02:14:16.145Z,95402.50
2022-07-25T02:17:17.874Z,95398.13
2022-07-25T02:20:19.554Z,95393.22
2022-07-25T02:23:22.568Z,95394.91
2022-07-25T02:26:24.367Z,95387.28
2022-07-25T02:29:25.999Z,95388.50
2022-07-25T02:32:27.623Z,95385.91
2022-07-25T02:35:29.268Z,95381.44
2022-07-25T02:38:32.305Z,95378.41
2022-07-25T02:41:34.015Z,95382.81
2022-07-25T02:44:35.672Z,95384.63
2022-07-25T02:47:37.376Z,95385.50
2022-07-25T02:50:39.129Z,95381.22
2022-07-25T02:53:58.674Z,95381.66
2022-07-25T02:57:00.743Z,95379.06
2022-07-25T03:00:02.360Z,95382.59
2022-07-25T03:03:04.296Z,95377.44
2022-07-25T03:06:06.272Z,95374.63
2022-07-25T03:09:09.267Z,95372.03
2022-07-25T03:12:10.925Z,95369.00
2022-07-25T03:15:14.702Z,95365.63
2022-07-25T03:18:16.350Z,95369.69
2022-07-25T03:21:18.501Z,95365.91
2022-07-25T03:24:21.512Z,95365.72
2022-07-25T03:27:23.373Z,95359.16
2022-07-25T03:30:25.024Z,95357.66
2022-07-25T03:33:26.723Z,95351.38
2022-07-25T03:36:28.356Z,95353.34
2022-07-25T03:39:31.478Z,95360.72
2022-07-25T03:42:35.467Z,95363.81
2022-07-25T03:45:37.455Z,95363.09
2022-07-25T03:48:39.390Z,95366.03
2022-07-25T03:51:41.231Z,95369.06
2022-07-25T03:54:44.237Z,95358.69
2022-07-25T03:57:45.947Z,95369.50
2022-07-25T04:00:47.642Z,95362.31
2022-07-25T04:03:49.405Z,95364.00
2022-07-25T04:06:51.471Z,95368.28
2022-07-25T04:09:54.462Z,95360.94
2022-07-25T04:12:56.098Z,95360.63
2022-07-25T04:15:57.937Z,95360.91
2022-07-25T04:18:59.693Z,95357.34
2022-07-25T04:22:03.350Z,95349.44
2022-07-25T04:25:07.051Z,95351.28
2022-07-25T04:28:08.883Z,95350.81
2022-07-25T04:31:10.534Z,95343.47
2022-07-25T04:34:12.270Z,95340.41
2022-07-25T04:37:13.962Z,95341.59
2022-07-25T04:40:17.020Z,95336.47
2022-07-25T04:43:20.304Z,95330.47
2022-07-25T04:46:22.240Z,95326.75
2022-07-25T04:49:23.920Z,95329.38
2022-07-25T04:52:25.572Z,95328.78
2022-07-25T04:55:28.582Z,95332.31
2022-07-25T04:58:31.302Z,95325.34
2022-07-25T05:01:33.050Z,95320.19
2022-07-25T05:04:35.047Z,95322.16
2022-07-25T05:07:45.025Z,95320.56
2022-07-25T05:10:48.034Z,95318.59
2022-07-25T05:13:49.806Z,95310.53
2022-07-25T05:16:51.484Z,95307.66
2022-07-25T05:19:53.263Z,95310.44
2022-07-25T05:22:54.890Z,95304.19
2022-07-25T05:25:57.975Z,95310.16
2022-07-25T05:28:59.664Z,95305.31
2022-07-25T05:32:01.386Z,95304.50
2022-07-25T05:35:03.704Z,95310.00
2022-07-25T05:38:05.389Z,95309.44
2022-07-25T05:41:08.554Z,95317.84
2022-07-25T05:44:10.684Z,95312.19
2022-07-25T05:47:12.654Z,95313.59
2022-07-25T05:50:14.481Z,95314.63
2022-07-25T05:53:16.352Z,95311.59
2022-07-25T05:56:19.378Z,95314.81
2022-07-25T05:59:21.013Z,95309.31
2022-07-25T06:02:22.746Z,95300.03
2022-07-25T06:05:24.651Z,95312.25
2022-07-25T06:08:26.606Z,95303.53
2022-07-25T06:11:31.004Z,95306.47
2022-07-25T06:14:32.722Z,95308.31
2022-07-25T06:17:34.360Z,95298.22
2022-07-25T06:20:36.089Z,95302.19
2022-07-25T06:23:37.739Z,95299.19
2022-07-25T06:26:40.737Z,95299.97
2022-07-25T06:29:42.747Z,95300.75
2022-07-25T06:32:44.504Z,95305.94
2022-07-25T06:35:46.155Z,95307.91
2022-07-25T06:38:47.771Z,95298.13
2022-07-25T06:41:51.695Z,95293.41
2022-07-25T06:44:53.350Z,95299.81
2022-07-25T06:47:54.991Z,95301.50
2022-07-25T06:50:56.623Z,95306.25
2022-07-25T06:53:58.466Z,95300.25
2022-07-25T06:57:01.462Z,95305.16
2022-07-25T07:00:03.331Z,95301.25
2022-07-25T07:03:05.023Z,95292.84
2022-07-25T07:06:07.161Z,95301.97
2022-07-25T07:09:08.890Z,95305.16
2022-07-25T07:12:11.963Z,95299.78
2022-07-25T07:15:14.402Z,95292.84
2022-07-25T07:18:16.050Z,95292.84
2022-07-25T07:21:21.428Z,95290.97
2022-07-25T07:24:24.469Z,95294.16
2022-07-25T07:27:27.720Z,95294.72
2022-07-25T07:30:52.087Z,95289.38
2022-07-25T07:33:51.309Z,95284.66
2022-07-25T07:36:52.982Z,95284.53
2022-07-25T07:39:54.624Z,95282.94
2022-07-25T07:42:57.674Z,95285.47
2022-07-25T07:45:59.541Z,95276.78
2022-07-25T07:49:01.274Z,95275.06
2022-07-25T07:52:03.133Z,95263.28
2022-07-25T07:55:05.491Z,95261.88
2022-07-25T07:58:08.657Z,95268.84
2022-07-25T08:01:10.281Z,95265.41
2022-07-25T08:04:11.925Z,95266.31
2022-07-25T08:07:13.556Z,95263.91
2022-07-25T08:10:15.178Z,95268.91
2022-07-25T08:13:19.566Z,95269.22
2022-07-25T08:16:21.394Z,95265.13
2022-07-25T08:19:23.108Z,95263.78
2022-07-25T08:22:24.871Z,95266.19
2022-07-25T08:25:26.511Z,95265.41
2022-07-25T08:28:29.549Z,95260.56
2022-07-25T08:31:31.195Z,95259.78
2022-07-25T08:34:32.922Z,95254.34
2022-07-25T08:37:34.605Z,95256.81
2022-07-25T08:40:36.410Z,95247.88
2022-07-25T08:43:39.637Z,95256.25
2022-07-25T08:46:41.547Z,95251.16
2022-07-25T08:49:43.766Z,95252.19
2022-07-25T08:52:45.984Z,95258.56
2022-07-25T08:55:47.857Z,95255.66
2022-07-25T08:58:50.823Z,95252.34
2022-07-25T09:01:52.616Z,95250.84
2022-07-25T09:04:54.405Z,95242.84
2022-07-25T09:07:56.677Z,95244.72
2022-07-25T09:10:58.631Z,95249.91
2022-07-25T09:14:02.828Z,95240.69
2022-07-25T09:17:07.174Z,95243.59
2022-07-25T09:20:24.652Z,95242.34
2022-07-25T09:23:30.120Z,95246.19
2022-07-25T09:26:31.739Z,95238.53
2022-07-25T09:29:35.421Z,95243.66
2022-07-25T09:32:37.051Z,95238.41
2022-07-25T09:35:38.706Z,95235.22
2022-07-25T09:38:40.455Z,95239.06
2022-07-25T09:41:42.066Z,95244.47
2022-07-25T09:44:45.409Z,95238.25
2022-07-25T09:47:51.480Z,95235.28
2022-07-25T09:50:54.401Z,95237.91
2022-07-25T09:53:56.146Z,95237.94
2022-07-25T09:56:57.774Z,95237.75
2022-07-25T10:00:03.925Z,95229.81
2022-07-25T10:03:15.022Z,95228.13
2022-07-25T10:06:20.761Z,95231.19
2022-07-25T10:09:22.838Z,95233.25
2022-07-25T10:12:24.869Z,95221.69
2022-07-25T10:15:40.307Z,95224.94
2022-07-25T10:18:47.679Z,95213.13
2022-07-25T10:21:54.748Z,95219.03
2022-07-25T10:25:07.337Z,95217.06
2022-07-25T10:28:08.989Z,95208.53
2022-07-25T10:31:22.370Z,95204.50
2022-07-25T10:34:28.599Z,95200.47
2022-07-25T10:37:30.229Z,95197.72
2022-07-25T10:40:33.495Z,95199.97
2022-07-25T10:43:37.421Z,95187.31
2022-07-25T10:46:41.003Z,95181.25
2022-07-25T10:50:13.411Z,95184.22
2022-07-25T10:53:05.160Z,95181.47
2022-07-25T10:56:08.517Z,95180.44
2022-07-25T10:59:10.474Z,95176.38
2022-07-25T11:02:13.648Z,95170.28
2022-07-25T11:05:15.311Z,95163.00
2022-07-25T11:08:22.203Z,95161.72
2022-07-25T11:11:32.629Z,95159.63
2022-07-25T11:14:35.889Z,95157.00
2022-07-25T11:17:38.911Z,95157.47
2022-07-25T11:20:40.671Z,95157.03
2022-07-25T11:23:42.305Z,95145.69
2022-07-25T11:26:48.443Z,95144.56
2022-07-25T11:29:50.169Z,95140.47
2022-07-25T11:32:54.805Z,95142.50
2022-07-25T11:35:56.601Z,95137.34
2022-07-25T11:38:58.279Z,95137.81
2022-07-25T11:42:01.170Z,95130.97
2022-07-25T11:45:02.855Z,95127.63
2022-07-25T11:48:06.950Z,95117.13
2022-07-25T11:51:11.609Z,95117.97
2022-07-25T11:54:15.430Z,95109.19
2022-07-25T11:57:20.080Z,95112.50
2022-07-25T12:00:21.738Z,95106.88
2022-07-25T12:03:24.807Z,95111.00
2022-07-25T12:06:29.307Z,95113.91
2022-07-25T12:09:30.970Z,95102.28
2022-07-25T12:12:41.135Z,95112.84
2022-07-25T12:15:42.805Z,95111.66
2022-07-25T12:18:45.802Z,95107.66
2022-07-25T12:21:47.879Z,95098.31
2022-07-25T12:24:49.541Z,95107.09
2022-07-25T12:27:51.264Z,95095.91
2022-07-25T12:30:56.545Z,95091.16
2022-07-25T12:33:59.930Z,95106.84
2022-07-25T12:37:01.637Z,95095.44
2022-07-25T12:40:04.047Z,95096.59
2022-07-25T12:43:06.057Z,95095.44
2022-07-25T12:46:07.790Z,95089.72
2022-07-25T12:49:11.555Z,95088.19
2022-07-25T12:52:13.977Z,95084.13
2022-07-25T12:55:16.835Z,95085.56
2022-07-25T12:58:18.504Z,95088.19
2022-07-25T13:01:20.188Z,95086.00
2022-07-25T13:04:23.317Z,95081.03
2022-07-25T13:07:25.060Z,95064.75
2022-07-25T13:10:26.717Z,95077.75
2022-07-25T13:13:28.364Z,95067.25
2022-07-25T13:16:30.212Z,95061.25
2022-07-25T13:19:33.382Z,95059.97
2022-07-25T13:22:35.037Z,95059.59
2022-07-25T13:25:36.771Z,95052.84
2022-07-25T13:28:38.486Z,95056.19
2022-07-25T13:31:40.407Z,95056.53
2022-07-25T13:34:43.570Z,95046.31
2022-07-25T13:37:45.233Z,95036.47
2022-07-25T13:40:46.899Z,95035.06
2022-07-25T13:43:48.529Z,95025.41
2022-07-25T13:46:50.309Z,95029.19
2022-07-25T13:49:53.406Z,95019.69
2022-07-25T13:52:55.142Z,95011.19
2022-07-25T13:55:57.350Z,95017.75
2022-07-25T13:58:59.077Z,95015.06
2022-07-25T14:02:00.904Z,95011.88
2022-07-25T14:05:04.493Z,95005.34
2022-07-25T14:08:06.763Z,95008.97
2022-07-25T14:11:08.632Z,95000.25
2022-07-25T14:14:10.324Z,94997.34
2022-07-25T14:17:12.102Z,94997.91
2022-07-25T14:20:15.125Z,94988.34
2022-07-25T14:23:16.818Z,94984.84
2022-07-25T14:26:18.655Z,94986.78
2022-07-25T14:29:20.336Z,94983.03
2022-07-25T14:32:22.525Z,94987.19
2022-07-25T14:35:30.237Z,94983.88
2022-07-25T14:38:33.941Z,94981.41
2022-07-25T14:41:35.849Z,94976.13
2022-07-25T14:44:37.688Z,94970.13
2022-07-25T14:47:41.128Z,94968.09
2022-07-25T14:50:44.211Z,94968.03
2022-07-25T14:53:50.000Z,94957.03
2022-07-25T14:56:54.562Z,94957.88
2022-07-25T14:59:56.187Z,94966.44
2022-07-25T15:02:57.855Z,94950.09
2022-07-25T15:06:01.186Z,94946.03
2022-07-25T15:09:03.128Z,94952.53
2022-07-25T15:12:04.988Z,94954.72
2022-07-25T15:15:07.139Z,94944.50
2022-07-25T15:18:13.679Z,94934.47
2022-07-25T15:21:17.057Z,94932.31
2022-07-25T15:24:18.697Z,94932.75
2022-07-25T15:27:20.345Z,94929.16
2022-07-25T15:30:25.968Z,94924.63
2022-07-25T15:33:30.922Z,94919.47
2022-07-25T15:36:33.994Z,94921.03
2022-07-25T15:39:35.634Z,94914.09
2022-07-25T15:42:38.227Z,94910.19
2022-07-25T15:45:40.333Z,94910.31
2022-07-25T15:48:43.025Z,94902.41
2022-07-25T15:51:46.198Z,94901.63
2022-07-25T15:54:48.931Z,94895.41
2022-07-25T15:57:51.514Z,94898.94
2022-07-25T16:00:53.492Z,94893.81
2022-07-25T16:03:55.258Z,94883.56
2022-07-25T16:06:58.410Z,94887.00
2022-07-25T16:10:00.079Z,94883.34
2022-07-25T16:13:01.770Z,94877.06
2022-07-25T16:16:04.354Z,94886.47
2022-07-25T16:19:06.359Z,94875.25
2022-07-25T16:22:09.650Z,94869.28
2022-07-25T16:25:11.422Z,94873.22
2022-07-25T16:28:13.136Z,94863.25
2022-07-25T16:31:15.015Z,94863.31
2022-07-25T16:34:16.770Z,94850.78
2022-07-25T16:37:20.199Z,94856.56
2022-07-25T16:40:22.991Z,94855.09
2022-07-25T16:43:27.671Z,94847.59
2022-07-25T16:46:29.362Z,94843.47
2022-07-25T16:49:31.115Z,94842.16
2022-07-25T16:52:34.160Z,94838.63
2022-07-25T16:55:35.854Z,94834.31
2022-07-25T16:58:37.612Z,94832.25
2022-07-25T17:01:39.381Z,94832.94
2022-07-25T17:04:41.121Z,94828.06
2022-07-25T17:07:44.172Z,94828.84
2022-07-25T17:10:45.971Z,94823.84
2022-07-25T17:13:47.721Z,94815.84
2022-07-25T17:16:49.387Z,94814.53
2022-07-25T17:19:52.483Z,94813.28
2022-07-25T17:22:58.332Z,94808.91
2022-07-25T17:26:00.031Z,94808.91
2022-07-25T17:29:01.865Z,94807.19
2022-07-25T17:32:04.109Z,94807.00
2022-07-25T17:35:05.941Z,94812.22
2022-07-25T17:38:10.827Z,94815.84
2022-07-25T17:41:12.545Z,94817.69
2022-07-25T17:44:14.377Z,94809.50
2022-07-25T17:47:16.518Z,94811.44
2022-07-25T17:50:18.309Z,94804.69
2022-07-25T17:53:21.372Z,94808.13
2022-07-25T17:56:23.108Z,94810.53
2022-07-25T17:59:25.070Z,94802.78
2022-07-25T18:02:26.713Z,94808.69
2022-07-25T18:05:28.463Z,94811.53
2022-07-25T18:08:31.464Z,94807.38
2022-07-25T18:11:33.099Z,94810.75
2022-07-25T18:14:34.842Z,94800.13
2022-07-25T18:17:36.494Z,94801.94
2022-07-25T18:20:38.268Z,94809.81
2022-07-25T18:23:41.292Z,94806.28
2022-07-25T18:26:43.150Z,94806.81
2022-07-25T18:29:44.888Z,94810.19
2022-07-25T18:32:46.561Z,94810.97
2022-07-25T18:35:49.804Z,94814.91
2022-07-25T18:38:52.869Z,94826.25
2022-07-25T18:41:54.555Z,94824.31
2022-07-25T18:44:56.353Z,94829.75
2022-07-25T18:47:58.225Z,94832.59
2022-07-25T18:51:00.423Z,94827.63
2022-07-25T18:54:03.869Z,94838.75
2022-07-25T18:57:05.673Z,94840.59
2022-07-25T19:00:08.702Z,94841.91
2022-07-25T19:03:10.421Z,94844.03
2022-07-25T19:06:12.081Z,94847.41
2022-07-25T19:09:15.127Z,94847.16
2022-07-25T19:12:16.967Z,94855.97
2022-07-25T19:15:18.737Z,94860.75
2022-07-25T19:18:20.376Z,94866.41
2022-07-25T19:21:22.008Z,94868.69
2022-07-25T19:24:25.314Z,94875.00
2022-07-25T19:27:27.089Z,94873.25
2022-07-25T19:30:28.778Z,94873.75
2022-07-25T19:33:35.976Z,94870.88
2022-07-25T19:36:37.895Z,94861.06
2022-07-25T19:39:40.952Z,94856.50
2022-07-25T19:42:42.646Z,94865.16
2022-07-25T19:45:44.362Z,94857.16
2022-07-25T19:48:46.162Z,94854.41
2022-07-25T19:51:47.961Z,94850.59
2022-07-25T19:54:51.045Z,94836.72
2022-07-25T19:57:52.685Z,94835.25
2022-07-25T20:00:54.371Z,94830.97
2022-07-25T20:03:56.027Z,94835.72
2022-07-25T20:06:57.706Z,94835.97
2022-07-25T20:10:00.737Z,94842.00
2022-07-25T20:13:02.429Z,94838.50
2022-07-25T20:16:04.609Z,94836.47
2022-07-25T20:19:07.091Z,94839.28
2022-07-25T20:22:09.084Z,94832.25
2022-07-25T20:25:12.655Z,94834.50
2022-07-25T20:28:14.393Z,94845.34
2022-07-25T20:31:16.183Z,94854.53
2022-07-25T20:34:19.320Z,94858.00
2022-07-25T20:37:21.490Z,94847.78
2022-07-25T20:40:24.537Z,94852.78
2022-07-25T20:43:26.484Z,94850.31
2022-07-25T20:46:28.913Z,94861.41
2022-07-25T20:49:30.688Z,94859.66
2022-07-25T20:52:32.442Z,94860.19
2022-07-25T20:55:35.806Z,94863.97
2022-07-25T20:58:37.528Z,94860.69
2022-07-25T21:01:39.759Z,94862.97
2022-07-25T21:04:41.476Z,94866.22
2022-07-25T21:07:43.178Z,94875.78
2022-07-25T21:10:46.280Z,94877.81
2022-07-25T21:13:48.057Z,94881.59
2022-07-25T21:16:49.872Z,94878.81
2022-07-25T21:19:51.592Z,94884.88
2022-07-25T21:22:53.261Z,94891.94
2022-07-25T21:25:56.365Z,94892.16
2022-07-25T21:28:58.038Z,94888.13
2022-07-25T21:31:59.843Z,94890.16
2022-07-25T21:35:01.756Z,94898.22
2022-07-25T21:38:03.489Z,94910.03
2022-07-25T21:41:06.733Z,94913.31
2022-07-25T21:44:08.463Z,94913.81
2022-07-25T21:47:10.553Z,94927.16
2022-07-25T21:50:13.062Z,94949.34
2022-07-25T21:53:14.919Z,94961.44
2022-07-25T21:56:18.172Z,94960.16
2022-07-25T21:59:19.882Z,95024.56
2022-07-25T22:02:21.671Z,95040.25
2022-07-25T22:05:23.710Z,95061.22
2022-07-25T22:08:25.411Z,95110.03
2022-07-25T22:11:42.246Z,95162.25
2022-07-25T22:14:47.870Z,95205.56
2022-07-25T22:17:50.285Z,95171.41
2022-07-25T22:20:51.977Z,95167.13
2022-07-25T22:23:53.647Z,95188.00
2022-07-25T22:26:56.681Z,95185.88
2022-07-25T22:29:58.381Z,95204.44
2022-07-25T22:33:00.037Z,95235.00
2022-07-25T22:36:01.758Z,95232.59
2022-07-25T22:39:03.426Z,95239.72
2022-07-25T22:45:23.190Z,95259.38
2022-07-25T22:48:27.992Z,95256.22
2022-07-25T22:54:31.097Z,95305.59
2022-07-25T22:57:37.310Z,95321.19
2022-07-25T23:00:40.921Z,95347.47
2022-07-25T23:03:42.945Z,95357.34
2022-07-25T23:06:44.656Z,95342.53
2022-07-25T23:09:46.322Z,95359.03
2022-07-25T23:12:47.998Z,95369.25
2022-07-25T23:15:51.478Z,95401.19
2022-07-25T23:18:53.421Z,95433.28
2022-07-25T23:21:55.135Z,95425.72
2022-07-25T23:24:57.457Z,95420.72
2022-07-25T23:27:59.068Z,95434.69
2022-07-25T23:31:02.194Z,95439.63
2022-07-25T23:34:03.874Z,95457.50
2022-07-25T23:37:05.706Z,95449.44
2022-07-25T23:40:07.877Z,95457.19
2022-07-25T23:43:09.558Z,95453.28
2022-07-25T23:46:15.629Z,95443.75
2022-07-25T23:49:19.939Z,95446.00
2022-07-25T23:52:21.709Z,95446.41
2022-07-25T23:55:23.362Z,95445.00
2022-07-25T23:58:24.998Z,95447.84
